Time;durP1;ratioP1;P1;durP2;ratioP2;P2;SDS_P1;SDS_P2;PMS_P1;PMS_P2;Temp;Humidity;BMP_temperature;BMP_pressure;BME280_temperature;BME280_humidity;BME280_pressure;Samples;Min_cycle;Max_cycle;Signal;HPM_P1;HPM_P2
2021/05/09 00:00:41;;;;;;;5.25;2.20;;;;;;;;;;5089514;28;20048;-93
2021/05/09 00:03:07;;;;;;;4.65;2.15;;;;;;;;;;5084007;28;20048;-93
2021/05/09 00:05:33;;;;;;;4.10;2.38;;;;;;;;;;5082741;28;20134;-93
2021/05/09 00:07:58;;;;;;;4.63;2.03;;;;;;;;;;5083495;28;20040;-93
2021/05/09 00:10:24;;;;;;;3.53;2.17;;;;;;;;;;5083535;28;20132;-93
2021/05/09 00:12:49;;;;;;;4.63;2.30;;;;;;;;;;5082506;28;20055;-92
2021/05/09 00:15:19;;;;;;;3.60;2.05;;;;;;;;;;5083587;28;20132;-93
2021/05/09 00:17:44;;;;;;;4.93;2.35;;;;;;;;;;5064245;28;20132;-93
2021/05/09 00:20:10;;;;;;;3.10;2.15;;;;;;;;;;5079243;28;20060;-93
2021/05/09 00:22:36;;;;;;;3.67;2.00;;;;;;;;;;5082868;28;20048;-93
2021/05/09 00:25:02;;;;;;;3.70;2.25;;;;;;;;;;5083266;28;20055;-94
2021/05/09 00:27:28;;;;;;;3.75;2.45;;;;;;;;;;5082164;28;20037;-95
2021/05/09 00:29:53;;;;;;;3.78;2.30;;;;;;;;;;5082795;28;20059;-93
2021/05/09 00:32:20;;;;;;;2.85;2.40;;;;;;;;;;5083378;28;20037;-93
2021/05/09 00:34:45;;;;;;;3.50;2.35;;;;;;;;;;5083643;28;20098;-93
2021/05/09 00:37:11;;;;;;;4.43;2.30;;;;;;;;;;5074682;28;20045;-94
2021/05/09 00:39:37;;;;;;;4.25;2.35;;;;;;;;;;5063059;28;20457;-95
2021/05/09 00:42:02;;;;;;;5.00;2.20;;;;;;;;;;5083230;28;20104;-94
2021/05/09 00:44:28;;;;;;;3.75;2.30;;;;;;;;;;5083151;28;20044;-93
2021/05/09 00:46:54;;;;;;;5.25;2.40;;;;;;;;;;5082092;28;20123;-91
2021/05/09 00:49:21;;;;;;;3.55;2.20;;;;;;;;;;5082594;28;20402;-94
2021/05/09 00:51:47;;;;;;;5.38;2.45;;;;;;;;;;5082898;28;20044;-94
2021/05/09 00:54:15;;;;;;;4.22;2.50;;;;;;;;;;5082470;28;20036;-94
2021/05/09 00:56:41;;;;;;;3.40;2.13;;;;;;;;;;5083585;28;20041;-94
2021/05/09 00:59:07;;;;;;;5.15;2.13;;;;;;;;;;5083347;28;20048;-93
2021/05/09 01:01:35;;;;;;;5.30;2.40;;;;;;;;;;5083933;28;20045;-94
2021/05/09 01:04:01;;;;;;;4.77;2.63;;;;;;;;;;5081970;28;20040;-94
2021/05/09 01:06:27;;;;;;;4.00;2.20;;;;;;;;;;5081632;28;20481;-93
2021/05/09 01:08:53;;;;;;;3.58;2.42;;;;;;;;;;5081684;28;20076;-94
2021/05/09 01:11:19;;;;;;;4.20;2.40;;;;;;;;;;5080230;28;20041;-94
2021/05/09 01:13:45;;;;;;;5.68;2.97;;;;;;;;;;5081634;28;20483;-93
2021/05/09 01:16:11;;;;;;;3.92;2.47;;;;;;;;;;5081133;28;20497;-94
2021/05/09 01:18:36;;;;;;;4.47;2.60;;;;;;;;;;5082116;28;20170;-93
2021/05/09 01:21:03;;;;;;;3.88;2.28;;;;;;;;;;5081920;28;20155;-94
2021/05/09 01:23:29;;;;;;;3.55;2.28;;;;;;;;;;5082481;28;20070;-94
2021/05/09 01:25:54;;;;;;;7.70;2.67;;;;;;;;;;5083453;28;20037;-94
2021/05/09 01:28:20;;;;;;;3.65;2.30;;;;;;;;;;5082270;28;20501;-94
2021/05/09 01:30:46;;;;;;;3.97;2.50;;;;;;;;;;5081746;28;20124;-92
2021/05/09 01:33:11;;;;;;;4.43;2.20;;;;;;;;;;5081886;28;20044;-94
2021/05/09 01:35:37;;;;;;;3.22;2.30;;;;;;;;;;5082628;28;20040;-93
2021/05/09 01:38:04;;;;;;;3.17;2.20;;;;;;;;;;5082319;28;20047;-93
2021/05/09 01:40:30;;;;;;;5.03;2.33;;;;;;;;;;5061452;28;20044;-93
2021/05/09 01:42:55;;;;;;;6.00;2.60;;;;;;;;;;5065158;28;20128;-92
2021/05/09 01:45:21;;;;;;;3.80;2.58;;;;;;;;;;5080600;28;20044;-94
2021/05/09 01:47:47;;;;;;;4.78;2.35;;;;;;;;;;5080452;28;20036;-93
2021/05/09 01:50:13;;;;;;;3.70;2.42;;;;;;;;;;5080621;28;20044;-92
2021/05/09 01:52:39;;;;;;;5.38;2.38;;;;;;;;;;5080927;28;20068;-94
2021/05/09 01:55:07;;;;;;;3.70;2.40;;;;;;;;;;5082287;28;20040;-92
2021/05/09 01:57:33;;;;;;;5.72;2.53;;;;;;;;;;5080842;28;20473;-94
2021/05/09 01:59:59;;;;;;;4.35;2.50;;;;;;;;;;5079946;28;20047;-94
2021/05/09 02:02:24;;;;;;;3.95;2.20;;;;;;;;;;5081334;28;20486;-93
2021/05/09 02:04:51;;;;;;;3.97;2.20;;;;;;;;;;5080594;28;20044;-93
2021/05/09 02:07:16;;;;;;;5.05;2.47;;;;;;;;;;5079790;28;20104;-93
2021/05/09 02:09:42;;;;;;;4.00;2.10;;;;;;;;;;5078929;28;20074;-92
2021/05/09 02:12:08;;;;;;;4.72;2.25;;;;;;;;;;5079365;28;20413;-93
2021/05/09 02:14:34;;;;;;;3.63;2.30;;;;;;;;;;5077539;28;20098;-93
2021/05/09 02:17:00;;;;;;;4.25;2.40;;;;;;;;;;5080786;28;20393;-94
2021/05/09 02:19:25;;;;;;;4.63;2.50;;;;;;;;;;5081622;28;20127;-95
2021/05/09 02:21:51;;;;;;;4.78;2.40;;;;;;;;;;5081601;28;20064;-93
2021/05/09 02:24:16;;;;;;;4.88;2.80;;;;;;;;;;5080934;28;20040;-93
2021/05/09 02:26:42;;;;;;;3.55;2.20;;;;;;;;;;5081269;28;20086;-93
2021/05/09 02:29:08;;;;;;;4.40;2.30;;;;;;;;;;5081472;28;20039;-94
2021/05/09 02:31:34;;;;;;;4.30;2.60;;;;;;;;;;5081500;28;20046;-93
2021/05/09 02:34:00;;;;;;;4.95;2.28;;;;;;;;;;5081521;28;20108;-95
2021/05/09 02:36:25;;;;;;;3.67;2.40;;;;;;;;;;5081528;28;20036;-94
2021/05/09 02:38:51;;;;;;;3.38;2.45;;;;;;;;;;5080103;28;20064;-94
2021/05/09 02:41:16;;;;;;;4.00;2.30;;;;;;;;;;5080280;28;20044;-95
2021/05/09 02:43:42;;;;;;;4.50;2.60;;;;;;;;;;5079594;28;20037;-92
2021/05/09 02:46:09;;;;;;;2.90;2.13;;;;;;;;;;5078555;28;20162;-93
2021/05/09 02:48:34;;;;;;;4.50;2.30;;;;;;;;;;5079165;28;20482;-94
2021/05/09 02:51:00;;;;;;;4.35;2.40;;;;;;;;;;5078999;28;20094;-94
2021/05/09 02:53:25;;;;;;;3.08;2.28;;;;;;;;;;5079047;28;20108;-93
2021/05/09 02:55:51;;;;;;;5.18;2.30;;;;;;;;;;5079955;28;20048;-92
2021/05/09 02:58:16;;;;;;;3.55;2.40;;;;;;;;;;5078847;28;20119;-93
2021/05/09 03:00:42;;;;;;;3.33;2.30;;;;;;;;;;5079679;28;20523;-93
2021/05/09 03:03:08;;;;;;;2.80;2.22;;;;;;;;;;5079718;28;20049;-93
2021/05/09 03:05:34;;;;;;;3.40;2.30;;;;;;;;;;5080249;28;20100;-94
2021/05/09 03:08:00;;;;;;;4.05;2.45;;;;;;;;;;5079396;28;20067;-94
2021/05/09 03:10:25;;;;;;;3.40;2.40;;;;;;;;;;5079959;28;20102;-94
2021/05/09 03:12:51;;;;;;;5.88;2.35;;;;;;;;;;5079193;28;20051;-94
2021/05/09 03:15:16;;;;;;;2.88;2.28;;;;;;;;;;5079093;28;20048;-95
2021/05/09 03:17:42;;;;;;;5.97;2.42;;;;;;;;;;5077692;28;20044;-93
2021/05/09 03:20:09;;;;;;;3.60;2.63;;;;;;;;;;5079146;28;20125;-94
2021/05/09 03:22:35;;;;;;;4.10;2.35;;;;;;;;;;5079701;28;20106;-94
2021/05/09 03:25:01;;;;;;;3.38;2.38;;;;;;;;;;5079354;28;20041;-92
2021/05/09 03:27:26;;;;;;;3.50;2.45;;;;;;;;;;5078725;28;20050;-94
2021/05/09 03:29:52;;;;;;;4.00;2.42;;;;;;;;;;5079225;28;20044;-94
2021/05/09 03:32:17;;;;;;;3.72;2.40;;;;;;;;;;5079418;28;20065;-94
2021/05/09 03:34:43;;;;;;;3.33;2.53;;;;;;;;;;5079292;28;20040;-94
2021/05/09 03:37:09;;;;;;;4.85;3.00;;;;;;;;;;5082859;28;20040;-94
2021/05/09 03:39:35;;;;;;;4.97;2.80;;;;;;;;;;5083158;28;20048;-93
2021/05/09 03:42:01;;;;;;;4.35;2.88;;;;;;;;;;5082669;28;20045;-94
2021/05/09 03:44:26;;;;;;;4.22;2.97;;;;;;;;;;5083040;28;20028;-93
2021/05/09 03:46:52;;;;;;;5.60;2.90;;;;;;;;;;5082988;28;20040;-93
2021/05/09 03:49:17;;;;;;;4.05;2.70;;;;;;;;;;5081753;28;20055;-93
2021/05/09 03:51:43;;;;;;;3.25;2.70;;;;;;;;;;5082253;28;20048;-93
2021/05/09 03:54:09;;;;;;;5.10;2.70;;;;;;;;;;5083319;28;20059;-94
2021/05/09 03:56:35;;;;;;;7.05;2.65;;;;;;;;;;5083882;28;20055;-94
2021/05/09 03:59:01;;;;;;;4.18;2.45;;;;;;;;;;5083330;28;20033;-93
2021/05/09 04:01:26;;;;;;;4.47;2.70;;;;;;;;;;5082848;28;20485;-93
2021/05/09 04:03:52;;;;;;;4.32;2.92;;;;;;;;;;5081707;28;20044;-94
2021/05/09 04:06:17;;;;;;;4.00;2.60;;;;;;;;;;5082161;28;20040;-94
2021/05/09 04:08:43;;;;;;;5.28;2.50;;;;;;;;;;5081834;28;20043;-94
2021/05/09 04:11:12;;;;;;;3.95;2.60;;;;;;;;;;5081643;28;20097;-93
2021/05/09 04:13:44;;;;;;;4.05;2.70;;;;;;;;;;5081868;28;20060;-94
2021/05/09 04:16:10;;;;;;;5.53;2.65;;;;;;;;;;5082523;28;20032;-92
2021/05/09 04:18:35;;;;;;;4.07;2.40;;;;;;;;;;5081506;28;20086;-94
2021/05/09 04:21:01;;;;;;;4.60;2.60;;;;;;;;;;5082826;28;20041;-93
2021/05/09 04:23:27;;;;;;;3.85;2.50;;;;;;;;;;5079562;28;20062;-93
2021/05/09 04:25:52;;;;;;;3.65;2.65;;;;;;;;;;5080932;28;20096;-93
2021/05/09 04:28:19;;;;;;;3.25;2.50;;;;;;;;;;5080215;28;20474;-93
2021/05/09 04:30:45;;;;;;;4.72;2.38;;;;;;;;;;5081953;28;20040;-93
2021/05/09 04:33:11;;;;;;;4.03;2.55;;;;;;;;;;5082035;28;20378;-92
2021/05/09 04:35:37;;;;;;;3.25;2.33;;;;;;;;;;5081609;28;20044;-94
2021/05/09 04:38:04;;;;;;;4.57;2.42;;;;;;;;;;5081180;28;20068;-94
2021/05/09 04:40:30;;;;;;;3.78;2.40;;;;;;;;;;5081750;28;20047;-94
2021/05/09 04:42:56;;;;;;;4.32;2.42;;;;;;;;;;5082261;28;20036;-93
2021/05/09 04:45:23;;;;;;;4.15;2.65;;;;;;;;;;5080825;28;20047;-92
2021/05/09 04:47:48;;;;;;;3.78;2.60;;;;;;;;;;5081374;28;20041;-92
2021/05/09 04:50:14;;;;;;;3.53;2.70;;;;;;;;;;5081007;28;20028;-92
2021/05/09 04:52:40;;;;;;;5.00;2.90;;;;;;;;;;5080405;28;20048;-93
2021/05/09 04:55:06;;;;;;;3.75;2.90;;;;;;;;;;5078601;28;20338;-92
2021/05/09 04:57:32;;;;;;;5.18;3.03;;;;;;;;;;5080851;28;20036;-93
2021/05/09 04:59:57;;;;;;;6.10;3.00;;;;;;;;;;5082268;28;20041;-95
2021/05/09 05:02:24;;;;;;;3.63;3.00;;;;;;;;;;5081139;28;20057;-94
2021/05/09 05:04:49;;;;;;;4.20;2.80;;;;;;;;;;5082126;28;20544;-94
2021/05/09 05:07:18;;;;;;;4.25;2.65;;;;;;;;;;5084430;28;20063;-93
2021/05/09 05:09:44;;;;;;;3.88;2.47;;;;;;;;;;5080857;28;20045;-92
2021/05/09 05:12:09;;;;;;;4.25;2.90;;;;;;;;;;5080736;28;20072;-93
2021/05/09 05:14:35;;;;;;;4.35;2.67;;;;;;;;;;5081764;28;20044;-92
2021/05/09 05:17:00;;;;;;;5.30;2.40;;;;;;;;;;5080016;28;20044;-92
2021/05/09 05:19:27;;;;;;;3.65;2.50;;;;;;;;;;5080366;28;20178;-92
2021/05/09 05:21:53;;;;;;;4.22;2.30;;;;;;;;;;5078723;28;20044;-93
2021/05/09 05:24:18;;;;;;;4.78;2.40;;;;;;;;;;5078803;28;20048;-93
2021/05/09 05:26:44;;;;;;;3.70;2.22;;;;;;;;;;5077391;28;20086;-94
2021/05/09 05:29:09;;;;;;;4.47;2.53;;;;;;;;;;5077903;28;20048;-94
2021/05/09 05:31:35;;;;;;;2.40;2.00;;;;;;;;;;5079695;28;20068;-92
2021/05/09 05:34:02;;;;;;;3.85;2.30;;;;;;;;;;5080093;28;20512;-93
2021/05/09 05:36:31;;;;;;;3.80;2.42;;;;;;;;;;5081884;28;20511;-94
2021/05/09 05:38:56;;;;;;;3.33;2.08;;;;;;;;;;5082133;28;20049;-94
2021/05/09 05:41:22;;;;;;;3.50;2.30;;;;;;;;;;5081710;28;20067;-93
2021/05/09 05:43:48;;;;;;;3.28;2.30;;;;;;;;;;5081110;28;20048;-93
2021/05/09 05:46:13;;;;;;;4.72;2.42;;;;;;;;;;5080310;28;20512;-93
2021/05/09 05:48:39;;;;;;;3.65;2.40;;;;;;;;;;5080201;28;20558;-93
2021/05/09 05:51:04;;;;;;;4.38;2.35;;;;;;;;;;5083041;28;20048;-94
2021/05/09 05:53:31;;;;;;;5.78;2.55;;;;;;;;;;5083036;28;20056;-93
2021/05/09 05:55:57;;;;;;;5.47;2.42;;;;;;;;;;5084536;28;20051;-93
2021/05/09 05:58:23;;;;;;;3.50;2.13;;;;;;;;;;5083263;28;20127;-94
2021/05/09 06:00:49;;;;;;;4.40;2.38;;;;;;;;;;5084002;28;20036;-94
2021/05/09 06:03:15;;;;;;;2.45;1.80;;;;;;;;;;5083377;28;20031;-95
2021/05/09 06:05:42;;;;;;;3.08;2.15;;;;;;;;;;5084413;28;20044;-95
2021/05/09 06:08:07;;;;;;;2.83;1.95;;;;;;;;;;5083433;28;20132;-93
2021/05/09 06:10:34;;;;;;;3.25;2.10;;;;;;;;;;5081975;28;20060;-94
2021/05/09 06:12:59;;;;;;;3.28;2.08;;;;;;;;;;5083435;28;20048;-94
2021/05/09 06:15:25;;;;;;;3.75;2.13;;;;;;;;;;5085011;28;20496;-95
2021/05/09 06:17:51;;;;;;;4.60;2.10;;;;;;;;;;5083077;28;20041;-96
2021/05/09 06:20:17;;;;;;;2.67;2.08;;;;;;;;;;5082298;28;20041;-93
2021/05/09 06:22:42;;;;;;;3.85;2.25;;;;;;;;;;5080674;28;20039;-92
2021/05/09 06:25:08;;;;;;;3.90;2.10;;;;;;;;;;5080397;28;20055;-94
2021/05/09 06:27:35;;;;;;;3.03;2.10;;;;;;;;;;5079969;28;20029;-94
2021/05/09 06:30:00;;;;;;;3.38;2.00;;;;;;;;;;5080965;28;20040;-94
2021/05/09 06:32:26;;;;;;;2.35;1.83;;;;;;;;;;5079556;28;20040;-93
2021/05/09 06:34:52;;;;;;;4.47;2.03;;;;;;;;;;5081217;28;20036;-93
2021/05/09 06:37:17;;;;;;;4.43;1.90;;;;;;;;;;5081853;28;20044;-92
2021/05/09 06:39:43;;;;;;;3.38;2.08;;;;;;;;;;5082778;28;20029;-94
2021/05/09 06:42:09;;;;;;;4.05;2.17;;;;;;;;;;5080888;28;20044;-95
2021/05/09 06:44:39;;;;;;;4.18;2.10;;;;;;;;;;5083139;28;20127;-95
2021/05/09 06:47:05;;;;;;;3.65;2.00;;;;;;;;;;5081190;28;20044;-94
2021/05/09 06:49:31;;;;;;;2.75;2.10;;;;;;;;;;5081291;28;20067;-93
2021/05/09 06:51:57;;;;;;;2.53;1.90;;;;;;;;;;5081315;28;20131;-93
2021/05/09 06:54:23;;;;;;;3.53;2.28;;;;;;;;;;5081144;28;20071;-94
2021/05/09 06:56:49;;;;;;;3.10;2.13;;;;;;;;;;5081350;28;20122;-94
2021/05/09 06:59:14;;;;;;;3.22;2.08;;;;;;;;;;5082009;28;20094;-94
2021/05/09 07:01:41;;;;;;;3.70;2.00;;;;;;;;;;5080117;28;20041;-94
2021/05/09 07:04:06;;;;;;;5.10;2.45;;;;;;;;;;5080989;28;20513;-94
2021/05/09 07:06:33;;;;;;;4.82;3.35;;;;;;;;;;5081713;28;20045;-95
2021/05/09 07:08:59;;;;;;;3.17;1.92;;;;;;;;;;5081566;28;20070;-93
2021/05/09 07:11:27;;;;;;;4.35;2.28;;;;;;;;;;5084598;28;20510;-94
2021/05/09 07:13:52;;;;;;;3.10;2.03;;;;;;;;;;5086798;28;20036;-94
2021/05/09 07:16:18;;;;;;;3.65;2.38;;;;;;;;;;5087318;28;20037;-94
2021/05/09 07:18:44;;;;;;;4.25;2.30;;;;;;;;;;5087381;28;20107;-94
2021/05/09 07:24:18;;;;;;;5.70;3.50;;;;;;;;;;5162716;27;20374;-95
2021/05/09 07:26:45;;;;;;;9.05;4.20;;;;;;;;;;5161682;27;20056;-95
2021/05/09 07:29:10;;;;;;;5.88;3.60;;;;;;;;;;5160000;27;20090;-95
2021/05/09 07:31:40;;;;;;;8.88;3.58;;;;;;;;;;5156791;27;20066;-93
2021/05/09 07:34:06;;;;;;;6.32;3.72;;;;;;;;;;5156069;27;20495;-94
2021/05/09 07:36:31;;;;;;;6.60;3.65;;;;;;;;;;5156598;27;20087;-92
2021/05/09 07:38:57;;;;;;;6.82;3.22;;;;;;;;;;5158643;27;20094;-94
2021/05/09 07:41:23;;;;;;;6.10;3.03;;;;;;;;;;5158894;27;20042;-94
2021/05/09 07:43:49;;;;;;;4.72;2.60;;;;;;;;;;5158178;27;20043;-93
2021/05/09 07:46:15;;;;;;;4.28;2.78;;;;;;;;;;5157540;27;20107;-93
2021/05/09 07:48:40;;;;;;;4.65;2.70;;;;;;;;;;5159754;27;20361;-94
2021/05/09 07:51:06;;;;;;;5.78;2.80;;;;;;;;;;5160851;27;20432;-92
2021/05/09 07:53:32;;;;;;;5.57;2.92;;;;;;;;;;5157343;27;20043;-95
2021/05/09 07:55:59;;;;;;;5.95;3.08;;;;;;;;;;5157358;27;20541;-93
2021/05/09 07:58:26;;;;;;;5.10;2.80;;;;;;;;;;5159040;27;20440;-94
2021/05/09 08:00:52;;;;;;;4.32;2.50;;;;;;;;;;5156778;27;20098;-93
2021/05/09 08:03:19;;;;;;;5.50;3.67;;;;;;;;;;5156976;27;20136;-92
2021/05/09 08:05:45;;;;;;;6.93;4.70;;;;;;;;;;5155957;27;20051;-94
2021/05/09 08:08:11;;;;;;;5.20;2.47;;;;;;;;;;5156304;27;20031;-94
2021/05/09 08:10:39;;;;;;;4.10;2.50;;;;;;;;;;5157234;27;20083;-94
2021/05/09 08:13:05;;;;;;;5.50;2.47;;;;;;;;;;5160362;27;20046;-95
2021/05/09 08:15:32;;;;;;;4.50;2.13;;;;;;;;;;5160940;27;20084;-95
2021/05/09 08:18:07;;;;;;;5.25;2.67;;;;;;;;;;5161265;27;20074;-94
2021/05/09 08:23:49;;;;;;;4.82;2.63;;;;;;;;;;5152183;27;20053;-94
2021/05/09 08:26:15;;;;;;;4.57;2.50;;;;;;;;;;5160183;27;20096;-94
2021/05/09 08:28:42;;;;;;;4.57;2.40;;;;;;;;;;5157138;27;20043;-94
2021/05/09 08:34:16;;;;;;;2.80;2.20;;;;;;;;;;5124802;27;1058352;-95
2021/05/09 08:36:42;;;;;;;4.93;2.28;;;;;;;;;;5138788;28;20050;-93
2021/05/09 08:39:07;;;;;;;4.75;2.60;;;;;;;;;;5138239;28;20035;-94
2021/05/09 08:41:38;;;;;;;9.10;5.35;;;;;;;;;;5138200;28;20441;-93
2021/05/09 08:47:03;;;;;;;3.67;2.60;;;;;;;;;;5122052;27;20054;-95
2021/05/09 08:49:41;;;;;;;5.55;2.50;;;;;;;;;;5139337;28;20039;-93
2021/05/09 08:52:07;;;;;;;5.43;2.58;;;;;;;;;;5130825;28;20043;-92
2021/05/09 08:54:33;;;;;;;3.80;2.53;;;;;;;;;;5136351;28;20120;-93
2021/05/09 08:56:58;;;;;;;4.65;2.58;;;;;;;;;;5136854;28;20472;-95
2021/05/09 08:59:24;;;;;;;4.45;2.50;;;;;;;;;;5136711;28;20056;-92
2021/05/09 09:01:49;;;;;;;4.82;2.85;;;;;;;;;;5136552;28;20050;-92
2021/05/09 09:04:15;;;;;;;5.90;2.45;;;;;;;;;;5136629;28;20134;-94
2021/05/09 09:06:43;;;;;;;3.92;2.50;;;;;;;;;;5136644;28;20526;-94
2021/05/09 09:09:17;;;;;;;3.88;2.53;;;;;;;;;;5136730;28;20048;-94
2021/05/09 09:11:48;;;;;;;3.08;2.40;;;;;;;;;;5136408;28;20039;-95
2021/05/09 09:27:45;;;;;;;4.38;2.55;;;;;;;;;;6258980;22;1057659;-92
2021/05/09 09:30:12;;;;;;;5.70;2.88;;;;;;;;;;6293941;22;20329;-95
2021/05/09 09:32:55;;;;;;;4.35;2.63;;;;;;;;;;6295092;22;20098;-94
2021/05/09 09:35:33;;;;;;;4.25;2.90;;;;;;;;;;6293525;22;20019;-93
2021/05/09 09:38:27;;;;;;;4.82;2.90;;;;;;;;;;6296146;22;20031;-94
2021/05/09 09:41:09;;;;;;;5.05;2.80;;;;;;;;;;6295418;22;20015;-95
2021/05/09 09:43:40;;;;;;;3.78;2.70;;;;;;;;;;6295523;22;20071;-96
2021/05/09 09:46:24;;;;;;;3.92;2.78;;;;;;;;;;6262597;22;20385;-94
2021/05/09 09:48:55;;;;;;;3.92;2.75;;;;;;;;;;6265516;22;20012;-93
2021/05/09 09:51:27;;;;;;;5.00;2.83;;;;;;;;;;6263328;23;20016;-95
2021/05/09 09:53:57;;;;;;;4.03;2.72;;;;;;;;;;6263582;22;20012;-94
2021/05/09 09:56:25;;;;;;;4.32;2.72;;;;;;;;;;6262697;22;20430;-94
2021/05/09 10:02:07;;;;;;;5.07;2.85;;;;;;;;;;5146285;27;978111;-93
2021/05/09 10:04:33;;;;;;;3.70;2.50;;;;;;;;;;5140655;27;20046;-92
2021/05/09 10:07:04;;;;;;;3.88;2.45;;;;;;;;;;5138385;27;20043;-96
2021/05/09 10:09:33;;;;;;;5.72;3.10;;;;;;;;;;5143152;27;20404;-94
2021/05/09 10:12:05;;;;;;;5.10;2.47;;;;;;;;;;5144244;27;20088;-92
2021/05/09 10:14:37;;;;;;;4.75;2.60;;;;;;;;;;5150813;27;20042;-95
2021/05/09 10:17:03;;;;;;;7.32;2.80;;;;;;;;;;5146985;27;20039;-93
2021/05/09 10:19:32;;;;;;;3.67;2.55;;;;;;;;;;5146839;27;20035;-94
2021/05/09 10:21:58;;;;;;;5.40;2.60;;;;;;;;;;5152721;27;20043;-94
2021/05/09 10:24:25;;;;;;;3.95;2.72;;;;;;;;;;5156740;27;20053;-91
2021/05/09 10:26:53;;;;;;;4.63;2.20;;;;;;;;;;5145857;27;20035;-91
2021/05/09 10:32:52;;;;;;;4.82;2.60;;;;;;;;;;5093968;27;20351;-90
2021/05/09 10:35:17;;;;;;;;;;;;;;;;;;5091080;28;20044;-91
2021/05/09 10:38:06;;;;;;;4.00;2.43;;;;;;;;;;5088856;28;19912;-93
2021/05/09 10:40:36;;;;;;;5.13;2.75;;;;;;;;;;5097127;28;20068;-93
2021/05/09 10:43:20;;;;;;;4.72;2.80;;;;;;;;;;5097124;28;20041;-92
2021/05/09 10:45:53;;;;;;;4.13;2.40;;;;;;;;;;5081354;28;20028;-92
2021/05/09 10:51:26;;;;;;;4.57;2.60;;;;;;;;;;5137124;27;20353;-93
2021/05/09 10:53:56;;;;;;;5.13;2.50;;;;;;;;;;5136462;27;20032;-93
2021/05/09 10:56:36;;;;;;;4.82;2.22;;;;;;;;;;5137980;27;20051;-93
2021/05/09 10:59:02;;;;;;;2.75;2.20;;;;;;;;;;5136122;28;20040;-92
2021/05/09 11:01:29;;;;;;;3.28;2.33;;;;;;;;;;5137155;27;20088;-92
2021/05/09 11:03:56;;;;;;;5.20;2.22;;;;;;;;;;5137613;27;20082;-93
2021/05/09 11:06:49;;;;;;;4.38;2.40;;;;;;;;;;5123357;27;20040;-94
2021/05/09 11:09:29;;;;;;;13.43;2.50;;;;;;;;;;5134879;27;20043;-94
2021/05/09 11:11:56;;;;;;;3.42;2.28;;;;;;;;;;5137279;27;20061;-94
2021/05/09 11:14:22;;;;;;;5.20;2.33;;;;;;;;;;5136565;27;20050;-95
2021/05/09 11:17:07;;;;;;;3.38;2.28;;;;;;;;;;5137290;27;20039;-94
2021/05/09 11:19:51;;;;;;;4.05;2.28;;;;;;;;;;5136611;27;20059;-92
2021/05/09 11:22:21;;;;;;;3.58;2.35;;;;;;;;;;5137423;27;20031;-94
2021/05/09 11:24:52;;;;;;;4.43;2.30;;;;;;;;;;5137949;27;20039;-95
2021/05/09 11:27:19;;;;;;;4.22;2.60;;;;;;;;;;5137090;27;20043;-93
2021/05/09 11:29:47;;;;;;;4.68;2.33;;;;;;;;;;5114582;28;20513;-94
2021/05/09 11:32:14;;;;;;;3.53;2.22;;;;;;;;;;5127304;28;20065;-92
2021/05/09 11:34:48;;;;;;;3.97;2.63;;;;;;;;;;5134941;27;20039;-94
2021/05/09 11:37:14;;;;;;;5.85;2.60;;;;;;;;;;5135862;27;20365;-92
2021/05/09 11:39:39;;;;;;;5.75;3.47;;;;;;;;;;5135430;27;20092;-93
2021/05/09 11:45:06;;;;;;;3.90;2.63;;;;;;;;;;5137200;27;20344;-92
2021/05/09 11:47:32;;;;;;;4.97;2.50;;;;;;;;;;5130323;28;20114;-94
2021/05/09 11:49:59;;;;;;;4.22;2.95;;;;;;;;;;5137328;27;20035;-95
2021/05/09 11:52:26;;;;;;;5.13;2.85;;;;;;;;;;5139062;27;20051;-94
2021/05/09 11:54:57;;;;;;;5.55;2.80;;;;;;;;;;5138831;27;20035;-93
2021/05/09 11:57:27;;;;;;;3.95;2.53;;;;;;;;;;5137621;27;20444;-94
2021/05/09 11:59:55;;;;;;;3.95;2.58;;;;;;;;;;5136894;27;20063;-93
2021/05/09 12:02:26;;;;;;;5.95;2.50;;;;;;;;;;5138865;27;20035;-93
2021/05/09 12:04:56;;;;;;;4.95;2.42;;;;;;;;;;5139485;27;20427;-93
2021/05/09 12:07:23;;;;;;;4.65;2.50;;;;;;;;;;5139726;27;20043;-94
2021/05/09 12:09:56;;;;;;;4.38;2.67;;;;;;;;;;5138116;27;20043;-95
2021/05/09 12:12:22;;;;;;;4.18;2.53;;;;;;;;;;5138314;28;20050;-94
2021/05/09 12:14:53;;;;;;;4.15;2.33;;;;;;;;;;5137277;27;20031;-95
2021/05/09 12:17:23;;;;;;;4.25;2.45;;;;;;;;;;5136819;27;20103;-92
2021/05/09 12:19:50;;;;;;;4.60;2.60;;;;;;;;;;5135628;27;20039;-94
2021/05/09 12:22:15;;;;;;;5.80;2.65;;;;;;;;;;5137386;27;20050;-95
2021/05/09 12:24:56;;;;;;;4.00;2.40;;;;;;;;;;5136031;27;20051;-94
2021/05/09 12:27:25;;;;;;;2.85;2.10;;;;;;;;;;5134054;27;20488;-94
2021/05/09 12:29:52;;;;;;;2.30;1.75;;;;;;;;;;5136312;27;20048;-93
2021/05/09 12:32:19;;;;;;;4.13;2.20;;;;;;;;;;5135839;27;20031;-94
2021/05/09 12:35:03;;;;;;;3.65;2.00;;;;;;;;;;5138620;27;20043;-92
2021/05/09 12:37:39;;;;;;;3.42;2.03;;;;;;;;;;5138423;27;20023;-96
2021/05/09 12:40:18;;;;;;;4.15;2.13;;;;;;;;;;5136726;27;20040;-93
2021/05/09 12:42:54;;;;;;;3.15;2.00;;;;;;;;;;5135102;27;20044;-94
2021/05/09 12:45:27;;;;;;;3.78;2.10;;;;;;;;;;5135720;27;20081;-94
2021/05/09 12:48:12;;;;;;;3.90;2.30;;;;;;;;;;5134799;27;20381;-95
2021/05/09 12:50:44;;;;;;;4.05;1.80;;;;;;;;;;5137077;27;20035;-94
2021/05/09 12:53:11;;;;;;;2.60;2.10;;;;;;;;;;5136337;27;20039;-95
2021/05/09 12:55:37;;;;;;;3.45;1.88;;;;;;;;;;5126534;27;20043;-93
2021/05/09 12:58:06;;;;;;;3.60;2.10;;;;;;;;;;5121537;28;20032;-93
2021/05/09 13:00:32;;;;;;;2.38;1.95;;;;;;;;;;5120583;27;20488;-94
2021/05/09 13:03:12;;;;;;;2.90;2.15;;;;;;;;;;5122320;28;20043;-93
2021/05/09 13:05:40;;;;;;;3.53;2.00;;;;;;;;;;5120996;28;20036;-94
2021/05/09 13:08:08;;;;;;;3.15;2.10;;;;;;;;;;5121278;28;20120;-92
2021/05/09 13:10:35;;;;;;;3.75;2.30;;;;;;;;;;5122319;28;20050;-93
2021/05/09 13:13:00;;;;;;;4.22;2.25;;;;;;;;;;5120410;28;20126;-93
2021/05/09 13:15:26;;;;;;;3.42;2.20;;;;;;;;;;5121430;28;20057;-92
2021/05/09 13:17:52;;;;;;;4.07;2.55;;;;;;;;;;5121486;27;20093;-91
2021/05/09 13:20:18;;;;;;;2.45;1.80;;;;;;;;;;5120894;28;20046;-92
2021/05/09 13:22:44;;;;;;;4.43;1.92;;;;;;;;;;5121603;28;20438;-93
2021/05/09 13:25:13;;;;;;;2.83;1.80;;;;;;;;;;5121561;27;20040;-93
2021/05/09 13:27:42;;;;;;;1.98;1.77;;;;;;;;;;5121554;28;20040;-92
2021/05/09 13:30:10;;;;;;;3.13;2.20;;;;;;;;;;5120597;28;20130;-92
2021/05/09 13:32:39;;;;;;;3.05;2.20;;;;;;;;;;5120981;28;20036;-94
2021/05/09 13:35:05;;;;;;;3.45;2.10;;;;;;;;;;5121228;28;20038;-92
2021/05/09 13:37:31;;;;;;;3.33;2.10;;;;;;;;;;5120957;28;20073;-92
2021/05/09 13:39:56;;;;;;;3.63;2.22;;;;;;;;;;5121496;28;20028;-93
2021/05/09 13:42:22;;;;;;;3.40;2.10;;;;;;;;;;5119545;28;20481;-93
2021/05/09 13:44:49;;;;;;;3.08;2.28;;;;;;;;;;5120145;28;20117;-94
2021/05/09 13:47:24;;;;;;;3.65;2.20;;;;;;;;;;5120812;28;20067;-95
2021/05/09 13:49:50;;;;;;;3.55;2.08;;;;;;;;;;5120372;28;20126;-93
2021/05/09 13:52:18;;;;;;;3.60;2.10;;;;;;;;;;5120644;27;20052;-93
2021/05/09 13:54:44;;;;;;;3.47;2.22;;;;;;;;;;5120683;28;20118;-92
2021/05/09 13:57:10;;;;;;;3.72;2.10;;;;;;;;;;5119987;28;20074;-93
2021/05/09 13:59:36;;;;;;;2.78;2.08;;;;;;;;;;5120034;28;20035;-95
2021/05/09 14:02:02;;;;;;;2.47;1.80;;;;;;;;;;5119023;28;20044;-94
2021/05/09 14:04:28;;;;;;;3.40;2.17;;;;;;;;;;5119114;28;20062;-93
2021/05/09 14:06:54;;;;;;;3.00;2.15;;;;;;;;;;5118264;28;20488;-95
2021/05/09 14:09:20;;;;;;;3.10;2.30;;;;;;;;;;5119290;28;20039;-93
2021/05/09 14:11:50;;;;;;;3.08;1.95;;;;;;;;;;5119307;28;20040;-94
2021/05/09 14:14:16;;;;;;;4.55;2.35;;;;;;;;;;5119307;28;20077;-91
2021/05/09 14:16:42;;;;;;;3.95;2.13;;;;;;;;;;5118402;28;20067;-93
2021/05/09 14:19:08;;;;;;;4.22;2.20;;;;;;;;;;5119637;28;20040;-94
2021/05/09 14:21:34;;;;;;;3.25;2.00;;;;;;;;;;5118581;28;20137;-93
2021/05/09 14:23:59;;;;;;;3.88;2.40;;;;;;;;;;5122401;27;20043;-93
2021/05/09 14:26:25;;;;;;;3.28;2.22;;;;;;;;;;5138631;27;20117;-93
2021/05/09 14:28:51;;;;;;;3.67;2.20;;;;;;;;;;5138664;27;20208;-93
2021/05/09 14:31:16;;;;;;;3.17;2.20;;;;;;;;;;5137903;27;20046;-94
2021/05/09 14:33:42;;;;;;;3.55;2.38;;;;;;;;;;5139145;27;20055;-91
2021/05/09 14:36:09;;;;;;;4.10;2.17;;;;;;;;;;5143172;27;20101;-94
2021/05/09 14:38:34;;;;;;;4.15;2.30;;;;;;;;;;5139041;27;20384;-96
2021/05/09 14:41:00;;;;;;;3.15;2.45;;;;;;;;;;5152292;27;20049;-91
2021/05/09 14:43:26;;;;;;;4.90;2.30;;;;;;;;;;5145753;27;20113;-92
2021/05/09 14:45:51;;;;;;;4.43;2.00;;;;;;;;;;5151810;27;20035;-94
2021/05/09 14:48:17;;;;;;;2.95;2.25;;;;;;;;;;5149296;27;20026;-93
2021/05/09 14:50:44;;;;;;;4.10;2.20;;;;;;;;;;5155591;27;20035;-93
2021/05/09 14:53:10;;;;;;;3.85;2.45;;;;;;;;;;5146809;27;20487;-92
2021/05/09 14:55:36;;;;;;;5.53;2.60;;;;;;;;;;5138682;27;20124;-93
2021/05/09 14:58:03;;;;;;;3.53;2.20;;;;;;;;;;5142566;27;20035;-93
2021/05/09 15:00:29;;;;;;;4.75;2.47;;;;;;;;;;5141145;27;20062;-92
2021/05/09 15:02:55;;;;;;;3.83;2.20;;;;;;;;;;5137721;27;20046;-93
2021/05/09 15:05:20;;;;;;;4.93;2.53;;;;;;;;;;5157181;27;20392;-94
2021/05/09 15:07:47;;;;;;;3.70;2.20;;;;;;;;;;5145515;27;20038;-91
2021/05/09 15:10:13;;;;;;;3.97;2.22;;;;;;;;;;5145014;27;20042;-93
2021/05/09 15:12:39;;;;;;;6.50;2.30;;;;;;;;;;5150529;27;20066;-92
2021/05/09 15:15:05;;;;;;;6.13;2.10;;;;;;;;;;5141786;27;20042;-94
2021/05/09 15:17:30;;;;;;;3.78;2.20;;;;;;;;;;5140443;27;20070;-92
2021/05/09 15:19:57;;;;;;;3.83;2.50;;;;;;;;;;5153468;27;20505;-93
2021/05/09 15:22:22;;;;;;;4.65;2.60;;;;;;;;;;5149845;27;20058;-93